createdAt,value
2023-05-22T00:00:14.274Z,36.43
2023-05-22T00:02:43.855Z,40.47
2023-05-22T00:05:12.980Z,41.10
2023-05-22T00:07:41.923Z,35.53
2023-05-22T00:10:10.917Z,36.47
2023-05-22T00:12:39.002Z,36.37
2023-05-22T00:15:09.682Z,41.23
2023-05-22T00:17:37.780Z,39.87
2023-05-22T00:20:07.714Z,36.90
2023-05-22T00:22:36.385Z,34.30
2023-05-22T00:25:04.983Z,32.50
2023-05-22T00:27:33.129Z,33.83
2023-05-22T00:30:01.719Z,37.90
2023-05-22T00:32:31.342Z,40.40
2023-05-22T00:34:59.417Z,35.30
2023-05-22T00:37:27.416Z,34.10
2023-05-22T00:39:55.745Z,35.33
2023-05-22T00:42:24.310Z,33.97
2023-05-22T00:44:52.374Z,36.03
2023-05-22T00:47:21.179Z,35.53
2023-05-22T00:49:50.856Z,33.03
2023-05-22T00:52:19.048Z,32.00
2023-05-22T00:54:47.085Z,34.73
2023-05-22T00:57:15.311Z,33.57
2023-05-22T00:59:44.063Z,35.87
2023-05-22T01:02:13.491Z,32.17
2023-05-22T01:04:42.671Z,32.83
2023-05-22T01:07:12.674Z,31.67
2023-05-22T01:09:40.681Z,31.70
2023-05-22T01:12:18.119Z,31.83
2023-05-22T01:14:56.723Z,32.83
2023-05-22T01:17:34.694Z,34.83
2023-05-22T01:20:10.279Z,29.93
2023-05-22T01:23:05.867Z,28.63
2023-05-22T01:25:57.743Z,31.37
2023-05-22T01:28:47.401Z,28.63
2023-05-22T01:31:18.686Z,25.20
2023-05-22T01:33:49.183Z,28.83
2023-05-22T01:36:20.271Z,22.83
2023-05-22T01:38:49.549Z,21.67
2023-05-22T01:41:18.089Z,25.80
2023-05-22T01:43:47.159Z,23.57
2023-05-22T01:46:16.559Z,23.37
2023-05-22T01:48:44.844Z,26.50
2023-05-22T01:51:20.255Z,23.60
2023-05-22T01:53:55.177Z,25.90
2023-05-22T01:56:30.715Z,24.47
2023-05-22T01:59:04.567Z,25.73
2023-05-22T02:01:38.872Z,23.33
2023-05-22T02:04:07.488Z,21.60
2023-05-22T02:06:36.983Z,23.03
2023-05-22T02:09:06.235Z,23.73
2023-05-22T02:11:36.426Z,26.13
2023-05-22T02:14:05.115Z,26.23
2023-05-22T02:16:35.197Z,27.00
2023-05-22T02:19:06.494Z,22.80
2023-05-22T02:21:36.105Z,25.60
2023-05-22T02:24:04.399Z,25.27
2023-05-22T02:26:32.523Z,25.23
2023-05-22T02:29:01.689Z,26.67
2023-05-22T02:31:29.764Z,26.17
2023-05-22T02:33:59.848Z,27.10
2023-05-22T02:36:30.916Z,27.50
2023-05-22T02:38:59.249Z,29.23
2023-05-22T02:41:27.342Z,23.20
2023-05-22T02:43:56.203Z,24.77
2023-05-22T02:46:24.401Z,24.17
2023-05-22T02:48:52.427Z,23.17
2023-05-22T02:51:21.849Z,24.50
2023-05-22T02:53:50.138Z,27.50
2023-05-22T02:56:18.842Z,26.10
2023-05-22T02:58:46.881Z,24.00
2023-05-22T03:01:15.528Z,30.00
2023-05-22T03:03:43.795Z,24.10
2023-05-22T03:06:12.129Z,23.03
2023-05-22T03:08:43.523Z,26.67
2023-05-22T03:11:11.626Z,24.80
2023-05-22T03:13:39.644Z,27.20
2023-05-22T03:16:08.430Z,26.30
2023-05-22T03:18:40.551Z,25.77
2023-05-22T03:21:08.548Z,26.53
2023-05-22T03:23:36.571Z,26.50
2023-05-22T03:26:06.151Z,25.93
2023-05-22T03:28:37.506Z,30.50
2023-05-22T03:31:05.830Z,30.27
2023-05-22T03:33:42.790Z,27.30
2023-05-22T03:36:11.065Z,26.00
2023-05-22T03:38:39.244Z,30.40
2023-05-22T03:41:09.042Z,34.80
2023-05-22T03:43:37.135Z,28.43
2023-05-22T03:46:05.987Z,28.67
2023-05-22T03:48:34.976Z,32.07
2023-05-22T03:51:03.087Z,36.53
2023-05-22T03:53:31.141Z,36.87
2023-05-22T03:56:00.328Z,33.97
2023-05-22T03:58:29.687Z,36.50
2023-05-22T04:00:58.590Z,36.30
2023-05-22T04:03:27.803Z,40.90
2023-05-22T04:05:56.848Z,38.43
2023-05-22T04:08:25.115Z,34.90
2023-05-22T04:10:54.507Z,44.93
2023-05-22T04:13:22.576Z,42.40
2023-05-22T04:15:53.566Z,37.93
2023-05-22T04:18:22.099Z,44.30
2023-05-22T04:20:51.853Z,42.30
2023-05-22T04:23:20.257Z,46.40
2023-05-22T04:25:48.868Z,42.73
2023-05-22T04:28:18.178Z,42.40
2023-05-22T04:30:47.847Z,45.60
2023-05-22T04:33:18.169Z,37.43
2023-05-22T04:35:46.321Z,34.60
2023-05-22T04:38:14.322Z,34.27
2023-05-22T04:40:43.412Z,31.47
2023-05-22T04:43:11.639Z,30.83
2023-05-22T04:45:42.197Z,30.30
2023-05-22T04:48:11.965Z,32.70
2023-05-22T04:50:41.538Z,30.47
2023-05-22T04:53:09.959Z,32.20
2023-05-22T04:55:38.083Z,30.97
2023-05-22T04:58:06.809Z,32.23
2023-05-22T05:00:35.299Z,34.77
2023-05-22T05:03:03.679Z,30.40
2023-05-22T05:05:32.134Z,40.77
2023-05-22T05:08:02.471Z,32.97
2023-05-22T05:10:30.941Z,33.20
2023-05-22T05:13:00.230Z,32.60
2023-05-22T05:15:29.448Z,31.27
2023-05-22T05:17:57.654Z,34.83
2023-05-22T05:20:27.445Z,37.50
2023-05-22T05:22:56.303Z,34.20
2023-05-22T05:25:25.992Z,34.33
2023-05-22T05:27:54.193Z,40.73
2023-05-22T05:30:24.145Z,47.80
2023-05-22T05:33:04.430Z,40.60
2023-05-22T05:35:42.170Z,41.73
2023-05-22T05:38:12.322Z,38.47
2023-05-22T05:40:43.805Z,46.10
2023-05-22T05:43:15.086Z,45.73
2023-05-22T05:45:43.935Z,41.90
2023-05-22T05:48:12.890Z,46.60
2023-05-22T05:50:44.622Z,45.70
2023-05-22T05:53:12.984Z,48.43
2023-05-22T05:55:47.213Z,49.97
2023-05-22T05:58:15.885Z,47.00
2023-05-22T06:00:55.406Z,49.07
2023-05-22T06:03:25.594Z,53.33
2023-05-22T06:06:12.007Z,48.30
2023-05-22T06:08:58.682Z,53.23
2023-05-22T06:11:34.243Z,55.70
2023-05-22T06:14:07.031Z,53.57
2023-05-22T06:16:35.262Z,57.87
2023-05-22T06:19:04.547Z,55.63
2023-05-22T06:21:33.164Z,65.40
2023-05-22T06:24:01.529Z,70.53
2023-05-22T06:26:30.370Z,73.13
2023-05-22T06:28:59.776Z,79.63
2023-05-22T06:31:29.103Z,84.70
2023-05-22T06:33:59.335Z,78.93
2023-05-22T06:36:27.546Z,82.10
2023-05-22T06:38:56.589Z,83.93
2023-05-22T06:41:44.897Z,90.03
2023-05-22T06:44:16.111Z,94.83
2023-05-22T06:46:44.161Z,93.97
2023-05-22T06:49:19.593Z,92.10
2023-05-22T06:51:50.786Z,94.90
2023-05-22T06:54:19.680Z,100.17
2023-05-22T06:56:49.897Z,91.93
2023-05-22T06:59:21.686Z,100.17
2023-05-22T07:02:07.823Z,98.50
2023-05-22T07:04:54.532Z,103.03
2023-05-22T07:07:30.121Z,102.77
2023-05-22T07:09:58.601Z,99.20
2023-05-22T07:12:27.955Z,102.27
2023-05-22T07:15:00.011Z,109.50
2023-05-22T07:17:28.472Z,129.47
2023-05-22T07:19:58.032Z,98.63
2023-05-22T07:22:27.062Z,97.20
2023-05-22T07:24:56.490Z,110.73
2023-05-22T07:27:28.995Z,97.40
2023-05-22T07:29:58.377Z,96.20
2023-05-22T07:32:27.076Z,97.33
2023-05-22T07:34:55.295Z,103.90
2023-05-22T07:37:23.483Z,91.77
2023-05-22T07:39:52.359Z,102.67
2023-05-22T07:42:21.727Z,98.53
2023-05-22T07:44:53.828Z,87.87
2023-05-22T07:47:24.277Z,93.30
2023-05-22T07:49:52.913Z,98.90
2023-05-22T07:52:21.710Z,98.90
2023-05-22T07:54:49.885Z,99.63
2023-05-22T07:57:19.340Z,96.33
2023-05-22T07:59:48.853Z,99.70
2023-05-22T08:02:16.950Z,92.63
2023-05-22T08:04:46.416Z,99.20
2023-05-22T08:07:14.537Z,91.97
2023-05-22T08:09:46.047Z,98.30
2023-05-22T08:12:14.146Z,96.00
2023-05-22T08:14:42.222Z,98.07
2023-05-22T08:17:10.335Z,95.07
2023-05-22T08:19:38.720Z,97.87
2023-05-22T08:22:08.483Z,106.47
2023-05-22T08:24:36.624Z,100.53
2023-05-22T08:27:06.463Z,100.57
2023-05-22T08:29:34.813Z,103.73
2023-05-22T08:32:02.944Z,103.37
2023-05-22T08:34:32.479Z,100.77
2023-05-22T08:37:00.595Z,101.20
2023-05-22T08:39:30.786Z,100.30
2023-05-22T08:41:59.320Z,104.87
2023-05-22T08:44:27.338Z,104.30
2023-05-22T08:46:56.665Z,110.63
2023-05-22T08:49:25.928Z,103.53
2023-05-22T08:51:57.467Z,94.60
2023-05-22T08:54:27.427Z,93.63
2023-05-22T08:56:57.619Z,96.67
2023-05-22T08:59:26.457Z,93.47
2023-05-22T09:01:55.162Z,75.53
2023-05-22T09:04:24.188Z,86.27
2023-05-22T09:06:54.249Z,69.93
2023-05-22T09:09:22.362Z,72.20
2023-05-22T09:11:51.690Z,72.40
2023-05-22T09:14:21.060Z,78.97
2023-05-22T09:16:51.195Z,82.10
2023-05-22T09:19:19.576Z,82.53
2023-05-22T09:21:48.205Z,66.00
2023-05-22T09:24:16.290Z,62.50
2023-05-22T09:26:44.316Z,56.47
2023-05-22T09:29:12.320Z,56.00
2023-05-22T09:31:44.624Z,62.73
2023-05-22T09:34:15.525Z,57.17
2023-05-22T09:36:43.784Z,63.23
2023-05-22T09:39:11.932Z,54.47
2023-05-22T09:41:41.051Z,50.27
2023-05-22T09:44:13.996Z,58.33
2023-05-22T09:46:46.076Z,57.23
2023-05-22T09:49:16.544Z,50.97
2023-05-22T09:51:48.026Z,49.43
2023-05-22T09:54:17.523Z,57.87
2023-05-22T09:56:47.927Z,48.03
2023-05-22T09:59:19.229Z,48.50
2023-05-22T10:01:49.948Z,56.53
2023-05-22T10:04:19.791Z,52.33
2023-05-22T10:06:51.751Z,52.17
2023-05-22T10:09:22.475Z,51.50
2023-05-22T10:11:54.484Z,50.83
2023-05-22T10:14:23.466Z,62.93
2023-05-22T10:16:53.795Z,55.97
2023-05-22T10:19:27.151Z,51.67
2023-05-22T10:21:57.367Z,56.70
2023-05-22T10:24:26.134Z,50.40
2023-05-22T10:26:55.354Z,52.63
2023-05-22T10:29:26.755Z,49.73
2023-05-22T10:32:01.518Z,47.50
2023-05-22T10:34:43.524Z,45.10
2023-05-22T10:37:23.043Z,50.00
2023-05-22T10:40:02.296Z,50.90
2023-05-22T10:42:31.908Z,43.07
2023-05-22T10:45:02.153Z,46.53
2023-05-22T10:47:34.783Z,54.67
2023-05-22T10:50:08.946Z,53.40
2023-05-22T10:52:37.220Z,52.07
2023-05-22T10:55:08.620Z,47.20
2023-05-22T10:57:38.952Z,52.90
2023-05-22T11:00:15.938Z,47.30
2023-05-22T11:02:49.680Z,48.07
2023-05-22T11:05:36.371Z,44.83
2023-05-22T11:08:26.254Z,53.20
2023-05-22T11:10:55.877Z,49.40
2023-05-22T11:13:29.140Z,48.80
2023-05-22T11:15:58.236Z,56.60
2023-05-22T11:18:30.085Z,47.53
2023-05-22T11:21:01.242Z,51.80
2023-05-22T11:23:29.677Z,47.97
2023-05-22T11:25:57.679Z,58.97
2023-05-22T11:28:26.073Z,55.40
2023-05-22T11:30:55.539Z,60.53
2023-05-22T11:33:25.105Z,61.53
2023-05-22T11:35:56.956Z,58.20
2023-05-22T11:38:27.130Z,59.80
2023-05-22T11:40:55.172Z,68.27
2023-05-22T11:43:31.534Z,61.63
2023-05-22T11:46:02.729Z,70.90
2023-05-22T11:48:30.930Z,62.73
2023-05-22T11:51:00.505Z,61.13
2023-05-22T11:53:28.739Z,60.30
2023-05-22T11:55:56.797Z,63.50
2023-05-22T11:58:28.754Z,56.13
2023-05-22T12:01:00.173Z,62.37
2023-05-22T12:03:28.412Z,66.57
2023-05-22T12:05:57.513Z,57.00
2023-05-22T12:08:27.361Z,52.93
2023-05-22T12:10:55.852Z,52.03
2023-05-22T12:13:25.400Z,50.83
2023-05-22T12:15:56.169Z,53.17
2023-05-22T12:18:24.368Z,52.93
2023-05-22T12:20:56.684Z,55.13
2023-05-22T12:23:27.373Z,50.17
2023-05-22T12:26:00.188Z,51.23
2023-05-22T12:28:28.418Z,57.57
2023-05-22T12:30:57.079Z,58.33
2023-05-22T12:33:29.157Z,50.83
2023-05-22T12:35:58.555Z,47.10
2023-05-22T12:38:30.548Z,55.93
2023-05-22T12:41:00.332Z,49.30
2023-05-22T12:43:28.415Z,53.17
2023-05-22T12:45:56.577Z,43.50
2023-05-22T12:48:24.638Z,46.33
2023-05-22T12:50:52.769Z,48.73
2023-05-22T12:53:20.981Z,47.13
2023-05-22T12:55:50.483Z,48.00
2023-05-22T12:58:18.618Z,50.50
2023-05-22T13:00:46.680Z,49.43
2023-05-22T13:03:14.931Z,49.13
2023-05-22T13:05:43.293Z,53.60
2023-05-22T13:08:11.427Z,50.50
2023-05-22T13:10:39.522Z,49.17
2023-05-22T13:13:09.007Z,46.03
2023-05-22T13:15:37.124Z,54.17
2023-05-22T13:18:05.339Z,51.63
2023-05-22T13:20:34.153Z,48.30
2023-05-22T13:23:02.204Z,50.03
2023-05-22T13:25:30.256Z,49.23
2023-05-22T13:27:59.545Z,48.30
2023-05-22T13:30:29.468Z,46.80
2023-05-22T13:32:58.208Z,44.97
2023-05-22T13:35:26.372Z,52.30
2023-05-22T13:37:54.529Z,52.93
2023-05-22T13:40:22.642Z,62.57
2023-05-22T13:42:52.723Z,91.27
2023-05-22T13:45:20.972Z,43.50
2023-05-22T13:47:50.705Z,41.80
2023-05-22T13:50:18.919Z,46.33
2023-05-22T13:52:46.987Z,48.30
2023-05-22T13:55:15.110Z,43.20
2023-05-22T13:57:43.167Z,45.13
2023-05-22T14:00:12.352Z,44.07
2023-05-22T14:02:40.588Z,47.70
2023-05-22T14:05:10.632Z,48.97
2023-05-22T14:07:38.761Z,44.80
2023-05-22T14:10:08.157Z,49.00
2023-05-22T14:12:36.258Z,55.50
2023-05-22T14:15:04.285Z,53.53
2023-05-22T14:17:32.306Z,50.57
2023-05-22T14:20:00.414Z,49.90
2023-05-22T14:22:30.625Z,52.67
2023-05-22T14:25:00.751Z,52.37
2023-05-22T14:27:28.848Z,52.13
2023-05-22T14:29:56.824Z,52.83
2023-05-22T14:32:24.839Z,61.90
2023-05-22T14:34:53.614Z,48.97
2023-05-22T14:37:21.792Z,50.27
2023-05-22T14:39:51.156Z,50.80
2023-05-22T14:42:19.152Z,51.80
2023-05-22T14:44:47.120Z,53.27
2023-05-22T14:47:15.192Z,53.23
2023-05-22T14:49:43.176Z,50.33
2023-05-22T14:52:11.216Z,59.00
2023-05-22T14:54:39.260Z,56.80
2023-05-22T14:57:08.809Z,59.50
2023-05-22T14:59:36.861Z,54.03
2023-05-22T15:02:04.947Z,59.33
2023-05-22T15:04:33.022Z,52.90
2023-05-22T15:07:01.614Z,60.03
2023-05-22T15:09:30.500Z,52.07
2023-05-22T15:11:58.507Z,56.80
2023-05-22T15:14:27.894Z,63.20
2023-05-22T15:16:55.894Z,59.00
2023-05-22T15:19:23.962Z,51.63
2023-05-22T15:21:52.019Z,57.30
2023-05-22T15:24:20.040Z,52.43
2023-05-22T15:26:48.079Z,59.73
2023-05-22T15:29:16.221Z,60.97
2023-05-22T15:31:45.763Z,64.43
2023-05-22T15:34:13.932Z,64.57
2023-05-22T15:36:41.937Z,65.23
2023-05-22T15:39:09.966Z,61.33
2023-05-22T15:41:38.041Z,63.83
2023-05-22T15:44:06.181Z,70.37
2023-05-22T15:46:34.253Z,64.73
2023-05-22T15:49:04.166Z,69.90
2023-05-22T15:51:32.720Z,67.03
2023-05-22T15:54:00.803Z,71.40
2023-05-22T15:56:28.847Z,64.30
2023-05-22T15:58:56.850Z,72.17
2023-05-22T16:01:24.936Z,65.77
2023-05-22T16:03:53.058Z,71.43
2023-05-22T16:06:23.291Z,72.13
2023-05-22T16:08:51.368Z,77.43
2023-05-22T16:11:19.476Z,73.93
2023-05-22T16:13:47.669Z,71.83
2023-05-22T16:16:17.307Z,73.73
2023-05-22T16:18:45.456Z,66.27
2023-05-22T16:21:13.528Z,75.70
2023-05-22T16:23:42.936Z,69.57
2023-05-22T16:26:10.966Z,70.50
2023-05-22T16:28:39.045Z,72.70
2023-05-22T16:31:07.194Z,74.00
2023-05-22T16:33:37.320Z,73.10
2023-05-22T16:36:06.569Z,66.17
2023-05-22T16:38:34.623Z,69.27
2023-05-22T16:41:04.003Z,67.57
2023-05-22T16:43:32.033Z,65.43
2023-05-22T16:46:00.301Z,63.50
2023-05-22T16:48:28.458Z,58.83
2023-05-22T16:50:56.502Z,70.50
2023-05-22T16:53:24.503Z,65.80
2023-05-22T16:55:52.578Z,74.20
2023-05-22T16:58:22.082Z,72.13
2023-05-22T17:00:50.310Z,77.93
2023-05-22T17:03:18.537Z,67.80
2023-05-22T17:05:47.571Z,67.87
2023-05-22T17:08:15.775Z,70.83
2023-05-22T17:10:43.881Z,73.33
2023-05-22T17:13:19.563Z,71.93
2023-05-22T17:15:49.421Z,72.30
2023-05-22T17:18:19.654Z,61.57
2023-05-22T17:20:47.873Z,85.67
2023-05-22T17:23:16.065Z,72.23
2023-05-22T17:25:46.484Z,68.10
2023-05-22T17:28:15.192Z,58.90
2023-05-22T17:30:44.090Z,58.03
2023-05-22T17:33:13.984Z,66.00
2023-05-22T17:35:42.981Z,69.10
2023-05-22T17:38:11.169Z,61.20
2023-05-22T17:40:45.558Z,62.27
2023-05-22T17:43:14.457Z,61.63
2023-05-22T17:45:44.376Z,65.73
2023-05-22T17:48:15.826Z,64.07
2023-05-22T17:50:43.959Z,56.90
2023-05-22T17:53:13.403Z,56.43
2023-05-22T17:55:41.479Z,59.53
2023-05-22T17:58:09.633Z,125.33
2023-05-22T18:00:37.795Z,90.37
2023-05-22T18:03:06.031Z,59.17
2023-05-22T18:05:35.643Z,50.80
2023-05-22T18:08:03.743Z,53.67
2023-05-22T18:10:32.070Z,51.57
2023-05-22T18:13:00.133Z,50.70
2023-05-22T18:15:28.206Z,48.87
2023-05-22T18:17:56.243Z,50.23
2023-05-22T18:20:24.352Z,51.10
2023-05-22T18:22:53.851Z,51.17
2023-05-22T18:25:21.919Z,50.30
2023-05-22T18:27:49.980Z,42.10
2023-05-22T18:30:18.737Z,37.50
2023-05-22T18:32:46.849Z,21.37
2023-05-22T18:35:15.085Z,20.73
2023-05-22T18:37:43.184Z,18.90
2023-05-22T18:40:13.885Z,16.30
2023-05-22T18:42:43.244Z,13.70
2023-05-22T18:45:12.338Z,18.23
2023-05-22T18:47:40.440Z,18.27
2023-05-22T18:50:09.355Z,14.13
2023-05-22T18:52:37.973Z,12.90
2023-05-22T18:55:06.899Z,15.27
2023-05-22T18:57:36.293Z,17.10
2023-05-22T19:00:04.655Z,13.03
2023-05-22T19:02:32.743Z,15.23
2023-05-22T19:05:00.986Z,14.90
2023-05-22T19:07:29.221Z,13.97
2023-05-22T19:09:57.349Z,14.60
2023-05-22T19:12:28.298Z,18.93
2023-05-22T19:14:58.352Z,14.63
2023-05-22T19:17:26.539Z,13.53
2023-05-22T19:19:54.804Z,19.60
2023-05-22T19:22:24.143Z,18.40
2023-05-22T19:24:52.229Z,21.83
2023-05-22T19:27:20.319Z,12.20
2023-05-22T19:29:48.505Z,12.03
2023-05-22T19:32:17.909Z,13.20
2023-05-22T19:34:46.420Z,18.80
2023-05-22T19:37:14.562Z,14.40
2023-05-22T19:39:42.609Z,16.63
2023-05-22T19:42:11.239Z,17.03
2023-05-22T19:44:39.414Z,13.70
2023-05-22T19:47:07.830Z,15.63
2023-05-22T19:49:37.365Z,13.00
2023-05-22T19:52:05.777Z,12.47
2023-05-22T19:54:33.942Z,18.50
2023-05-22T19:57:02.934Z,24.10
2023-05-22T19:59:30.997Z,31.93
2023-05-22T20:01:59.134Z,24.70
2023-05-22T20:04:27.343Z,11.97
2023-05-22T20:06:58.599Z,16.43
2023-05-22T20:09:27.498Z,11.23
2023-05-22T20:11:55.526Z,13.73
2023-05-22T20:14:23.594Z,13.43
2023-05-22T20:16:51.993Z,13.37
2023-05-22T20:19:20.171Z,15.33
2023-05-22T20:21:49.849Z,20.17
2023-05-22T20:24:20.984Z,16.60
2023-05-22T20:26:49.394Z,17.73
2023-05-22T20:29:17.715Z,16.27
2023-05-22T20:31:46.756Z,17.13
2023-05-22T20:34:15.507Z,18.23
2023-05-22T20:36:46.532Z,16.67
2023-05-22T20:39:14.813Z,63.30
2023-05-22T20:41:44.213Z,51.37
2023-05-22T20:44:12.292Z,24.27
2023-05-22T20:46:40.332Z,15.40
2023-05-22T20:49:08.846Z,21.43
2023-05-22T20:51:36.921Z,15.93
2023-05-22T20:54:05.260Z,18.37
2023-05-22T20:56:33.410Z,15.53
2023-05-22T20:59:02.798Z,18.10
2023-05-22T21:01:31.130Z,19.23
2023-05-22T21:03:59.404Z,17.63
2023-05-22T21:06:27.588Z,13.97
2023-05-22T21:08:59.702Z,17.57
2023-05-22T21:11:27.766Z,18.43
2023-05-22T21:13:55.968Z,19.20
2023-05-22T21:16:25.586Z,16.83
2023-05-22T21:18:53.869Z,13.97
2023-05-22T21:21:21.927Z,13.30
2023-05-22T21:23:50.764Z,16.10
2023-05-22T21:26:22.196Z,12.97
2023-05-22T21:28:50.415Z,12.33
2023-05-22T21:31:18.552Z,14.87
2023-05-22T21:33:48.004Z,15.80
2023-05-22T21:36:16.050Z,14.00
2023-05-22T21:38:44.077Z,15.90
2023-05-22T21:41:12.542Z,18.63
2023-05-22T21:43:40.657Z,11.70
2023-05-22T21:46:08.935Z,10.10
2023-05-22T21:48:36.979Z,11.30
2023-05-22T21:51:06.787Z,12.83
2023-05-22T21:53:34.805Z,13.90
2023-05-22T21:56:02.880Z,10.23
2023-05-22T21:58:30.975Z,13.30
2023-05-22T22:00:59.008Z,14.47
2023-05-22T22:03:27.128Z,15.90
2023-05-22T22:05:55.281Z,15.47
2023-05-22T22:08:27.093Z,17.63
2023-05-22T22:10:55.325Z,18.67
2023-05-22T22:13:23.361Z,14.30
2023-05-22T22:15:51.636Z,18.93
2023-05-22T22:18:19.656Z,17.60
2023-05-22T22:23:17.996Z,11.30
2023-05-22T22:25:47.545Z,12.67
2023-05-22T22:28:15.882Z,12.17
2023-05-22T22:30:43.918Z,12.30
2023-05-22T22:33:12.822Z,15.10
2023-05-22T22:35:42.196Z,11.73
2023-05-22T22:38:10.525Z,15.10
2023-05-22T22:40:38.703Z,8.87
2023-05-22T22:43:08.255Z,12.77
2023-05-22T22:45:36.356Z,9.80
2023-05-22T22:48:05.793Z,10.23
2023-05-22T22:50:33.900Z,9.27
2023-05-22T22:53:01.899Z,12.27
2023-05-22T22:55:30.183Z,10.73
2023-05-22T22:57:59.519Z,9.50
2023-05-22T23:00:29.115Z,10.03
2023-05-22T23:02:57.231Z,8.67
2023-05-22T23:05:25.369Z,8.73
2023-05-22T23:07:53.433Z,8.07
2023-05-22T23:10:22.048Z,10.10
2023-05-22T23:12:50.228Z,11.43
2023-05-22T23:15:18.410Z,8.60
2023-05-22T23:17:50.165Z,9.47
2023-05-22T23:20:19.766Z,48.17
2023-05-22T23:22:47.829Z,49.10
2023-05-22T23:25:15.829Z,10.60
2023-05-22T23:27:44.021Z,10.77
2023-05-22T23:30:12.862Z,9.57
2023-05-22T23:32:40.912Z,10.93
2023-05-22T23:35:11.173Z,9.50
2023-05-22T23:37:39.186Z,10.07
2023-05-22T23:40:08.825Z,10.90
2023-05-22T23:42:37.436Z,9.10
2023-05-22T23:45:06.115Z,8.60
2023-05-22T23:47:34.191Z,12.90
2023-05-22T23:50:02.256Z,13.70
2023-05-22T23:52:32.048Z,14.33
2023-05-22T23:55:00.687Z,14.23
2023-05-22T23:57:28.801Z,19.57
2023-05-22T23:59:56.811Z,12.73
